Time;durP1;ratioP1;P1;durP2;ratioP2;P2;SDS_P1;SDS_P2;PMS_P1;PMS_P2;Temp;Humidity;BMP_temperature;BMP_pressure;BME280_temperature;BME280_humidity;BME280_pressure;Samples;Min_cycle;Max_cycle;Signal;HPM_P1;HPM_P2
2023/09/13 00:01:57;;;;;;;15.20;8.40;;;;;;;17.21;86.54;100981.50;105559;1269;68391;-87
2023/09/13 00:04:25;;;;;;;12.20;7.50;;;;;;;17.16;86.69;100981.11;105372;1266;71431;-87
2023/09/13 00:06:53;;;;;;;14.50;7.90;;;;;;;17.09;86.62;100985.52;105660;1266;198270;-82
2023/09/13 00:09:21;;;;;;;11.70;7.10;;;;;;;17.03;86.20;100983.32;105832;1268;59305;-86
2023/09/13 00:11:50;;;;;;;13.60;7.90;;;;;;;17.02;85.79;100980.64;105416;1266;70721;-82
2023/09/13 00:14:18;;;;;;;14.20;7.80;;;;;;;16.99;85.30;100985.63;105408;1264;68878;-82
2023/09/13 00:16:45;;;;;;;14.20;7.40;;;;;;;16.99;85.08;100982.92;105677;1265;71529;-89
2023/09/13 00:19:13;;;;;;;18.10;8.10;;;;;;;16.94;85.29;100977.94;105676;1270;60104;-88
2023/09/13 00:21:42;;;;;;;14.90;8.10;;;;;;;16.86;86.08;100980.22;105706;1264;59557;-88
2023/09/13 00:24:10;;;;;;;16.00;8.80;;;;;;;16.84;86.72;100979.70;105643;1265;73109;-82
2023/09/13 00:26:38;;;;;;;15.10;8.20;;;;;;;16.80;87.54;100977.67;105610;1264;68633;-88
2023/09/13 00:29:06;;;;;;;15.30;8.40;;;;;;;16.79;88.00;100974.45;105552;1267;72650;-88
2023/09/13 00:31:34;;;;;;;19.70;9.10;;;;;;;16.95;87.42;100973.62;105774;1267;60094;-82
2023/09/13 00:34:02;;;;;;;15.20;8.50;;;;;;;17.08;86.62;100966.60;105525;1264;59981;-88
2023/09/13 00:36:30;;;;;;;15.70;9.00;;;;;;;17.08;86.66;100970.58;105492;1264;71770;-88
2023/09/13 00:38:58;;;;;;;16.40;8.70;;;;;;;17.02;87.12;100970.48;105552;1264;66744;-82
2023/09/13 00:41:25;;;;;;;16.00;8.90;;;;;;;16.97;87.50;100968.39;105530;1270;72764;-88
2023/09/13 00:43:55;;;;;;;16.60;8.80;;;;;;;16.87;88.26;100968.86;105693;1264;59863;-88
2023/09/13 00:46:22;;;;;;;16.60;8.20;;;;;;;16.84;87.89;100970.43;105600;1268;59520;-88
2023/09/13 00:48:50;;;;;;;14.20;8.50;;;;;;;16.81;87.47;100974.09;105633;1271;72848;-88
2023/09/13 00:51:18;;;;;;;12.60;7.70;;;;;;;16.82;86.97;100971.70;105708;1269;67563;-87
2023/09/13 00:53:46;;;;;;;15.10;8.40;;;;;;;16.82;86.01;100971.19;105609;1266;71479;-82
2023/09/13 00:56:14;;;;;;;20.50;9.00;;;;;;;16.80;85.79;100965.48;105690;1264;59759;-88
2023/09/13 00:58:42;;;;;;;19.00;9.10;;;;;;;16.69;86.53;100966.67;105581;1264;60094;-82
2023/09/13 01:01:12;;;;;;;16.20;8.70;;;;;;;16.62;87.14;100963.91;105809;1263;73135;-87
2023/09/13 01:03:41;;;;;;;15.10;8.40;;;;;;;16.55;88.11;100961.41;105904;1267;68411;-82
2023/09/13 01:06:10;;;;;;;15.50;9.20;;;;;;;16.63;88.04;100961.90;105993;1265;72707;-85
2023/09/13 01:08:41;;;;;;;14.20;8.30;;;;;;;16.71;87.71;100960.97;105919;1265;59721;-88
2023/09/13 01:11:10;;;;;;;15.40;7.90;;;;;;;16.64;87.84;100958.30;105925;1265;59598;-87
2023/09/13 01:13:38;;;;;;;17.80;8.90;;;;;;;16.69;86.49;100957.35;105882;1265;72068;-88
2023/09/13 01:16:29;;;;;;;17.30;7.90;;;;;;;16.68;85.65;100958.05;106068;1261;67350;-82
2023/09/13 01:19:01;;;;;;;17.30;9.20;;;;;;;16.58;85.29;100960.58;105804;1260;72371;-88
2023/09/13 01:21:39;;;;;;;16.00;8.90;;;;;;;16.52;84.34;100964.56;105850;1266;59841;-88
2023/09/13 01:24:25;;;;;;;16.10;8.00;;;;;;;16.42;84.72;100962.00;105956;1261;59548;-89
2023/09/13 01:27:00;;;;;;;13.70;7.90;;;;;;;16.33;84.92;100961.23;106110;1260;72372;-83
2023/09/13 01:29:28;;;;;;;16.90;8.10;;;;;;;15.98;86.96;100959.23;105954;1263;68429;-88
2023/09/13 01:31:56;;;;;;;14.20;8.90;;;;;;;15.94;87.83;100962.55;105927;1266;71913;-89
2023/09/13 01:34:23;;;;;;;15.50;8.50;;;;;;;15.99;88.07;100962.69;105928;1264;60471;-89
2023/09/13 01:36:51;;;;;;;15.70;8.30;;;;;;;16.13;87.64;100962.33;106010;1260;60975;-82
2023/09/13 01:39:19;;;;;;;18.70;9.20;;;;;;;16.16;87.61;100967.84;105875;1264;71857;-87
2023/09/13 01:41:55;;;;;;;15.20;9.20;;;;;;;16.03;88.94;100968.69;105880;1261;68421;-88
2023/09/13 01:44:23;;;;;;;16.00;9.50;;;;;;;16.04;89.27;100974.30;106076;1266;71967;-88
2023/09/13 01:46:51;;;;;;;20.40;9.90;;;;;;;16.07;89.35;100978.11;105947;1263;61688;-83
2023/09/13 01:49:20;;;;;;;15.40;9.50;;;;;;;16.17;88.92;100978.63;105861;1266;60137;-88
2023/09/13 01:51:48;;;;;;;15.20;8.40;;;;;;;16.18;88.91;100976.58;105930;1261;71865;-88
2023/09/13 01:54:19;;;;;;;16.60;8.60;;;;;;;16.12;88.88;100971.45;105899;1265;67123;-88
2023/09/13 01:56:47;;;;;;;13.80;7.60;;;;;;;16.18;86.85;100972.72;105894;1264;72666;-81
2023/09/13 01:59:15;;;;;;;13.40;7.40;;;;;;;16.07;86.61;100967.95;105757;1264;61686;-82
2023/09/13 02:01:43;;;;;;;16.50;9.10;;;;;;;16.08;85.79;100972.84;105960;1261;60125;-82
2023/09/13 02:04:11;;;;;;;16.40;9.10;;;;;;;16.01;86.29;100971.33;106008;1260;72488;-89
2023/09/13 02:06:39;;;;;;;16.30;8.40;;;;;;;15.86;87.69;100972.08;106372;1259;67452;-83
2023/09/13 02:09:07;;;;;;;17.10;9.50;;;;;;;15.83;88.59;100972.59;106211;1256;73022;-83
2023/09/13 02:11:35;;;;;;;14.70;8.20;;;;;;;15.81;89.02;100973.91;106283;1259;61817;-89
2023/09/13 02:14:02;;;;;;;15.50;9.00;;;;;;;15.60;90.95;100971.77;106238;1254;60030;-89
2023/09/13 02:16:30;;;;;;;14.10;8.70;;;;;;;15.82;89.84;100970.77;106294;1257;70931;-88
2023/09/13 02:18:59;;;;;;;15.80;8.70;;;;;;;15.81;89.78;100971.05;106411;1254;67112;-88
2023/09/13 02:21:27;;;;;;;16.90;9.10;;;;;;;15.80;90.14;100972.45;106237;1260;71493;-89
2023/09/13 02:23:55;;;;;;;18.40;8.60;;;;;;;15.75;90.27;100971.77;106312;1260;59757;-88
2023/09/13 02:26:23;;;;;;;14.70;8.60;;;;;;;15.82;89.85;100969.55;106396;1259;60738;-88
2023/09/13 02:28:52;;;;;;;15.90;9.30;;;;;;;15.70;90.74;100969.41;106144;1260;73067;-82
2023/09/13 02:31:21;;;;;;;20.00;9.50;;;;;;;15.70;91.06;100968.98;106138;1261;68559;-88
2023/09/13 02:33:50;;;;;;;13.70;8.50;;;;;;;15.72;91.11;100973.84;106076;1257;72638;-83
2023/09/13 02:36:17;;;;;;;14.70;8.50;;;;;;;15.76;90.86;100977.54;106185;1258;60104;-88
2023/09/13 02:38:45;;;;;;;14.10;8.20;;;;;;;15.76;91.02;100973.68;106262;1260;59533;-87
2023/09/13 02:41:13;;;;;;;14.40;8.00;;;;;;;15.67;91.05;100975.46;106099;1259;73095;-88
2023/09/13 02:43:41;;;;;;;17.40;9.00;;;;;;;15.57;90.36;100973.30;106140;1256;68417;-82
2023/09/13 02:46:09;;;;;;;16.00;8.70;;;;;;;15.50;90.64;100976.94;106318;1254;72759;-83
2023/09/13 02:48:37;;;;;;;16.50;9.10;;;;;;;15.43;91.54;100972.30;106196;1256;59824;-82
2023/09/13 02:51:11;;;;;;;14.00;8.20;;;;;;;15.43;91.65;100979.13;106318;1254;60006;-83
2023/09/13 02:53:39;;;;;;;14.60;8.30;;;;;;;15.41;91.97;100975.36;106222;1259;73035;-82
2023/09/13 02:56:07;;;;;;;17.00;9.20;;;;;;;15.45;91.51;100967.32;106334;1254;69244;-87
2023/09/13 02:58:34;;;;;;;15.30;8.70;;;;;;;15.43;91.46;100967.36;106251;1254;73128;-83
2023/09/13 03:01:03;;;;;;;16.20;9.00;;;;;;;15.34;91.73;100974.21;106424;1256;59523;-88
2023/09/13 03:03:32;;;;;;;15.30;8.30;;;;;;;15.25;92.33;100972.36;106302;1260;60162;-88
2023/09/13 03:06:06;;;;;;;15.00;8.50;;;;;;;15.28;92.30;100970.39;106389;1257;73045;-87
2023/09/13 03:08:34;;;;;;;15.30;8.20;;;;;;;15.27;92.37;100968.69;106310;1254;67190;-82
2023/09/13 03:11:13;;;;;;;16.30;8.80;;;;;;;15.36;91.82;100966.36;106343;1254;72709;-82
2023/09/13 03:13:42;;;;;;;18.30;9.20;;;;;;;15.33;91.60;100969.31;106138;1257;60224;-87
2023/09/13 03:16:12;;;;;;;17.40;9.40;;;;;;;15.32;91.77;100967.69;106284;1253;59590;-82
2023/09/13 03:18:40;;;;;;;20.20;9.60;;;;;;;15.33;91.82;100971.67;106397;1255;73122;-88
2023/09/13 03:21:09;;;;;;;14.80;8.10;;;;;;;15.22;92.71;100970.92;106522;1257;68331;-88
2023/09/13 03:23:38;;;;;;;16.30;8.30;;;;;;;15.34;91.85;100971.19;106505;1257;72621;-82
2023/09/13 03:26:17;;;;;;;18.80;8.40;;;;;;;15.43;90.97;100960.86;106357;1251;60129;-83
2023/09/13 03:28:47;;;;;;;14.00;8.80;;;;;;;15.29;91.08;100967.29;106524;1255;59695;-83
2023/09/13 03:31:16;;;;;;;13.50;8.40;;;;;;;15.24;90.63;100969.35;106560;1251;73141;-88
2023/09/13 03:33:45;;;;;;;16.90;8.90;;;;;;;15.20;91.08;100973.92;106558;1254;66491;-88
2023/09/13 03:36:14;;;;;;;15.10;8.40;;;;;;;15.24;91.37;100974.35;106303;1254;72267;-88
2023/09/13 03:38:44;;;;;;;12.10;7.80;;;;;;;15.11;92.57;100976.27;106478;1257;61721;-82
2023/09/13 03:41:15;;;;;;;15.30;8.40;;;;;;;15.01;92.81;100976.89;106235;1254;60063;-82
2023/09/13 03:43:42;;;;;;;14.50;9.00;;;;;;;15.00;92.69;100981.48;106416;1256;72812;-87
2023/09/13 03:46:11;;;;;;;15.30;9.10;;;;;;;14.98;93.33;100984.90;106532;1257;68625;-88
2023/09/13 03:48:39;;;;;;;16.50;10.10;;;;;;;15.04;93.84;100986.54;106412;1254;71625;-82
2023/09/13 03:51:07;;;;;;;17.50;9.20;;;;;;;15.14;93.79;100990.75;106391;1254;59676;-87
2023/09/13 03:53:35;;;;;;;18.40;8.70;;;;;;;15.11;94.33;100988.52;106446;1256;59631;-82
2023/09/13 03:56:03;;;;;;;17.20;9.90;;;;;;;15.18;94.71;100988.33;106410;1251;72921;-89
2023/09/13 03:58:34;;;;;;;17.10;8.80;;;;;;;15.22;95.39;100984.09;106472;1254;66899;-82
2023/09/13 04:01:02;;;;;;;16.60;8.40;;;;;;;15.39;94.93;100988.95;106475;1254;72706;-88
2023/09/13 04:03:32;;;;;;;14.70;7.70;;;;;;;15.42;95.31;100990.44;106480;1255;62126;-84
2023/09/13 04:06:00;;;;;;;19.50;9.20;;;;;;;15.48;95.72;100995.80;106321;1254;60495;-82
2023/09/13 04:08:28;;;;;;;16.70;9.20;;;;;;;15.56;96.03;100991.11;106616;1257;73935;-88
2023/09/13 04:10:56;;;;;;;16.40;9.20;;;;;;;15.75;95.50;100982.73;106423;1254;68352;-87
2023/09/13 04:13:24;;;;;;;13.60;8.60;;;;;;;15.85;95.39;100980.08;106334;1254;72450;-83
2023/09/13 04:15:52;;;;;;;14.20;8.50;;;;;;;15.96;95.37;100981.05;106596;1253;60483;-89
2023/09/13 04:18:20;;;;;;;16.20;8.60;;;;;;;15.97;96.25;100980.52;106378;1251;60432;-88
2023/09/13 04:20:47;;;;;;;14.70;8.60;;;;;;;16.00;97.10;100981.41;106516;1251;72624;-89
2023/09/13 04:23:15;;;;;;;15.20;9.30;;;;;;;16.06;97.92;100980.92;106488;1254;68578;-89
2023/09/13 04:25:43;;;;;;;15.50;9.10;;;;;;;16.25;97.77;100978.58;106379;1254;72781;-88
2023/09/13 04:28:11;;;;;;;17.00;9.20;;;;;;;16.30;98.04;100971.98;106255;1259;60514;-84
2023/09/13 04:30:39;;;;;;;19.70;9.60;;;;;;;16.37;98.26;100973.23;106186;1254;60463;-88
2023/09/13 04:33:07;;;;;;;15.80;8.70;;;;;;;16.56;97.81;100975.61;106210;1257;73908;-83
2023/09/13 04:35:35;;;;;;;18.00;9.30;;;;;;;16.71;97.73;100975.16;106135;1254;68742;-82
2023/09/13 04:38:03;;;;;;;16.60;9.50;;;;;;;16.80;98.18;100975.70;106402;1251;73198;-88
2023/09/13 04:40:31;;;;;;;18.50;8.60;;;;;;;16.99;97.90;100976.55;106433;1251;60539;-82
2023/09/13 04:43:06;;;;;;;16.30;8.40;;;;;;;17.13;98.13;100973.66;106642;1251;60521;-88
2023/09/13 04:45:34;;;;;;;13.70;8.50;;;;;;;17.35;98.33;100976.69;106393;1257;73851;-87
2023/09/13 04:48:02;;;;;;;15.10;9.00;;;;;;;17.54;98.31;100972.36;106270;1252;68322;-83
2023/09/13 04:50:30;;;;;;;17.00;9.10;;;;;;;17.88;97.76;100975.23;106294;1253;72675;-87
2023/09/13 04:52:58;;;;;;;15.50;8.70;;;;;;;18.27;96.33;100973.00;106323;1256;60531;-88
2023/09/13 04:55:26;;;;;;;14.00;8.80;;;;;;;18.33;96.97;100978.14;106228;1253;60338;-87
2023/09/13 04:57:54;;;;;;;17.60;8.40;;;;;;;18.43;97.49;100980.15;106441;1251;73823;-88
2023/09/13 05:00:26;;;;;;;17.40;9.00;;;;;;;18.69;96.72;100977.76;106326;1256;67101;-88
2023/09/13 05:02:54;;;;;;;14.50;8.50;;;;;;;18.96;95.50;100976.80;106244;1258;72680;-87
2023/09/13 05:05:23;;;;;;;13.70;8.10;;;;;;;19.22;94.85;100968.82;106326;1254;60332;-87
2023/09/13 05:07:50;;;;;;;15.70;8.00;;;;;;;19.31;95.21;100970.36;106254;1254;60437;-87
2023/09/13 05:10:18;;;;;;;14.90;8.50;;;;;;;19.53;95.15;100970.42;106492;1255;73850;-83
2023/09/13 05:12:49;;;;;;;13.20;7.50;;;;;;;19.86;93.99;100976.20;106308;1251;68900;-83
2023/09/13 05:15:17;;;;;;;14.20;8.20;;;;;;;20.18;93.04;100969.44;106536;1255;72674;-87
2023/09/13 05:17:45;;;;;;;15.80;8.60;;;;;;;20.44;92.39;100971.09;106556;1251;61714;-87
2023/09/13 05:20:13;;;;;;;17.90;7.90;;;;;;;20.66;92.36;100968.58;106388;1251;60595;-88
2023/09/13 05:22:42;;;;;;;13.80;8.30;;;;;;;20.92;92.30;100965.49;106305;1251;73792;-84
2023/09/13 05:25:10;;;;;;;13.00;8.90;;;;;;;21.24;91.73;100965.90;106383;1251;68446;-84
2023/09/13 05:27:37;;;;;;;18.30;9.00;;;;;;;21.24;94.34;100971.66;106507;1252;71109;-84
2023/09/13 05:30:06;;;;;;;14.70;7.50;;;;;;;21.53;94.04;100971.88;106331;1251;61705;-84
2023/09/13 05:32:34;;;;;;;15.70;7.90;;;;;;;21.83;93.08;100972.89;106357;1251;60702;-84
2023/09/13 05:35:02;;;;;;;14.10;8.30;;;;;;;22.16;91.61;100975.48;106324;1257;73199;-88
2023/09/13 05:37:31;;;;;;;17.50;9.10;;;;;;;22.45;90.68;100973.76;106262;1257;67117;-88
2023/09/13 05:39:59;;;;;;;13.40;7.90;;;;;;;22.75;90.31;100974.80;106290;1253;71646;-84
2023/09/13 05:42:27;;;;;;;16.00;7.70;;;;;;;22.89;88.84;100973.26;106292;1253;61047;-88
2023/09/13 05:44:55;;;;;;;14.70;7.70;;;;;;;23.15;87.61;100971.27;106489;1253;60403;-88
2023/09/13 05:47:23;;;;;;;18.10;8.20;;;;;;;23.63;84.10;100972.20;106363;1253;73779;-84
2023/09/13 05:49:50;;;;;;;13.80;8.50;;;;;;;23.89;82.96;100968.33;106368;1251;67121;-84
2023/09/13 05:52:18;;;;;;;15.80;8.30;;;;;;;24.16;81.88;100969.91;106338;1251;72661;-84
2023/09/13 05:54:49;;;;;;;16.50;8.40;;;;;;;24.51;80.06;100965.21;106537;1253;62167;-84
2023/09/13 05:57:17;;;;;;;15.30;8.30;;;;;;;24.70;78.97;100966.31;106409;1251;60555;-88
2023/09/13 05:59:44;;;;;;;13.40;7.80;;;;;;;24.86;79.01;100965.52;106468;1255;74127;-88
2023/09/13 06:02:12;;;;;;;14.90;8.80;;;;;;;25.15;78.97;100964.38;106491;1251;68893;-88
2023/09/13 06:04:40;;;;;;;18.40;8.60;;;;;;;25.34;79.39;100962.11;106450;1254;71485;-90
2023/09/13 06:07:09;;;;;;;18.40;9.20;;;;;;;25.58;79.81;100961.37;106246;1257;60419;-87
2023/09/13 06:09:37;;;;;;;19.30;9.00;;;;;;;25.93;80.03;100963.74;106115;1254;60470;-85
2023/09/13 06:12:04;;;;;;;14.00;8.40;;;;;;;26.27;78.64;100963.31;106439;1253;63765;-83
2023/09/13 06:14:32;;;;;;;15.00;8.80;;;;;;;26.47;77.29;100965.74;106298;1251;60472;-83
2023/09/13 06:17:00;;;;;;;16.90;9.90;;;;;;;26.74;77.05;100962.18;106310;1252;63834;-87
2023/09/13 06:19:28;;;;;;;20.40;8.90;;;;;;;27.05;75.87;100964.63;106584;1251;60529;-88
2023/09/13 06:21:56;;;;;;;17.40;8.50;;;;;;;27.28;73.86;100965.59;106541;1251;60282;-84
2023/09/13 06:24:24;;;;;;;15.60;9.30;;;;;;;27.47;72.30;100966.46;106453;1256;64950;-85
2023/09/13 06:26:53;;;;;;;16.70;8.70;;;;;;;27.62;71.31;100966.40;106794;1251;60499;-88
2023/09/13 06:29:21;;;;;;;15.90;9.90;;;;;;;27.80;70.43;100968.88;106426;1256;62431;-85
2023/09/13 06:31:49;;;;;;;15.10;8.50;;;;;;;28.01;69.28;100973.42;106531;1253;60466;-84
2023/09/13 06:34:33;;;;;;;16.50;9.00;;;;;;;28.32;66.79;100971.64;106662;1252;60833;-84
2023/09/13 06:37:02;;;;;;;23.90;12.50;;;;;;;28.39;65.65;100970.09;106440;1253;64956;-86
2023/09/13 06:39:33;;;;;;;20.30;10.60;;;;;;;28.71;62.25;100973.56;106541;1253;67899;-85
2023/09/13 06:42:02;;;;;;;18.50;10.90;;;;;;;28.83;60.03;100973.32;106474;1253;62450;-84
2023/09/13 06:44:49;;;;;;;21.50;11.30;;;;;;;29.01;58.18;100972.80;106478;1256;60428;-85
2023/09/13 06:47:19;;;;;;;17.20;9.80;;;;;;;29.22;56.11;100971.80;106601;1251;60444;-89
2023/09/13 06:49:49;;;;;;;19.10;10.10;;;;;;;29.39;53.95;100973.23;106637;1251;65008;-85
2023/09/13 06:52:18;;;;;;;21.50;11.10;;;;;;;29.48;53.08;100975.70;106468;1251;60290;-89
2023/09/13 06:54:49;;;;;;;20.10;11.90;;;;;;;29.54;52.43;100975.48;106602;1253;63828;-85
2023/09/13 06:57:19;;;;;;;24.30;10.40;;;;;;;29.56;52.05;100977.34;106398;1253;60545;-89
2023/09/13 06:59:51;;;;;;;17.80;9.70;;;;;;;29.67;51.24;100975.45;106660;1252;59295;-89
2023/09/13 07:02:27;;;;;;;23.00;11.60;;;;;;;29.88;50.61;100980.49;106504;1253;67041;-86
2023/09/13 07:05:04;;;;;;;18.90;10.80;;;;;;;30.13;49.43;100981.11;106514;1253;60518;-90
2023/09/13 07:07:35;;;;;;;;;;;;;;;30.28;48.84;100982.83;106507;1253;62510;-85
2023/09/13 07:10:03;;;;;;;21.70;11.30;;;;;;;30.50;48.14;100984.62;106428;1253;60483;-89
2023/09/13 07:12:30;;;;;;;17.00;10.00;;;;;;;30.53;47.56;100985.50;106549;1251;60345;-87
2023/09/13 07:14:59;;;;;;;19.30;11.10;;;;;;;30.56;47.86;100986.30;106456;1256;74381;-89
2023/09/13 07:17:27;;;;;;;19.30;12.50;;;;;;;30.62;47.27;100987.73;106493;1253;60752;-87
2023/09/13 07:19:55;;;;;;;21.50;13.30;;;;;;;30.63;46.88;100993.46;106400;1253;63739;-90
2023/09/13 07:22:23;;;;;;;23.70;12.80;;;;;;;30.73;46.31;100989.34;106576;1253;60467;-86
2023/09/13 07:24:52;;;;;;;22.70;10.40;;;;;;;30.84;46.18;100990.80;106515;1252;60421;-90
2023/09/13 07:27:21;;;;;;;19.70;11.50;;;;;;;30.89;45.78;100990.15;106330;1251;64943;-89
2023/09/13 07:29:49;;;;;;;16.40;10.80;;;;;;;31.07;45.90;100994.14;106586;1251;60454;-86
2023/09/13 07:32:18;;;;;;;18.90;11.00;;;;;;;31.33;45.57;100994.89;106464;1251;63741;-89
2023/09/13 07:34:45;;;;;;;21.50;13.10;;;;;;;31.43;46.10;100989.77;106526;1252;60445;-87
2023/09/13 07:37:13;;;;;;;19.10;12.20;;;;;;;31.48;46.70;100990.80;106472;1251;60466;-84
2023/09/13 07:39:42;;;;;;;22.80;13.10;;;;;;;31.56;46.02;100990.67;106448;1251;64907;-87
2023/09/13 07:42:11;;;;;;;22.00;13.30;;;;;;;31.69;45.56;100989.73;106496;1253;60365;-90
2023/09/13 07:44:39;;;;;;;22.00;14.10;;;;;;;31.84;45.52;100992.55;106434;1253;62887;-86
2023/09/13 07:47:07;;;;;;;21.40;14.00;;;;;;;31.87;45.38;100995.19;106562;1254;60537;-90
2023/09/13 07:49:35;;;;;;;21.10;12.20;;;;;;;31.86;45.23;100993.50;106284;1260;60662;-87
2023/09/13 07:52:03;;;;;;;24.10;13.80;;;;;;;31.93;45.31;100993.14;106575;1251;65006;-89
2023/09/13 07:54:31;;;;;;;20.20;12.90;;;;;;;32.01;45.03;100991.66;106592;1254;60409;-89
2023/09/13 07:56:59;;;;;;;22.50;13.70;;;;;;;32.00;45.50;100988.52;106495;1251;66485;-85
2023/09/13 07:59:27;;;;;;;22.00;13.20;;;;;;;32.00;45.61;100990.13;106675;1251;60523;-89
2023/09/13 08:01:55;;;;;;;18.80;12.80;;;;;;;31.90;45.56;100995.35;106335;1253;60454;-87
2023/09/13 08:04:23;;;;;;;19.90;11.70;;;;;;;32.11;44.97;100997.89;106494;1252;64977;-87
2023/09/13 08:06:51;;;;;;;20.40;11.20;;;;;;;32.28;44.88;100997.69;106538;1251;60482;-86
2023/09/13 08:09:18;;;;;;;26.10;13.10;;;;;;;32.37;44.68;100993.75;106542;1253;63784;-88
2023/09/13 08:11:47;;;;;;;19.60;11.60;;;;;;;32.32;43.63;100996.04;106370;1253;60346;-88
2023/09/13 08:14:14;;;;;;;20.30;10.30;;;;;;;32.32;43.14;100996.53;106585;1256;60505;-90
2023/09/13 08:16:42;;;;;;;17.70;10.90;;;;;;;32.37;42.86;100998.91;106511;1253;64937;-91
2023/09/13 08:19:11;;;;;;;14.80;7.90;;;;;;;32.44;42.01;100998.60;106540;1255;63350;-90
2023/09/13 08:21:41;;;;;;;12.10;7.60;;;;;;;32.48;41.33;100997.05;106317;1257;63842;-85
2023/09/13 08:24:09;;;;;;;14.40;7.80;;;;;;;32.51;40.28;100996.70;106420;1257;60311;-90
2023/09/13 08:26:36;;;;;;;15.60;7.40;;;;;;;32.53;39.62;100997.77;106467;1251;60008;-89
2023/09/13 08:29:04;;;;;;;13.10;7.20;;;;;;;32.49;36.28;100994.95;106581;1251;66846;-88
2023/09/13 08:31:32;;;;;;;12.00;5.50;;;;;;;32.47;35.69;100989.61;106727;1251;60451;-88
2023/09/13 08:34:00;;;;;;;11.90;6.40;;;;;;;32.50;36.44;100992.52;106721;1256;67340;-90
2023/09/13 08:36:28;;;;;;;9.80;6.30;;;;;;;32.57;36.95;100991.73;106414;1253;60380;-90
2023/09/13 08:38:56;;;;;;;13.60;7.30;;;;;;;32.65;36.50;100993.45;106580;1251;60488;-89
2023/09/13 08:41:23;;;;;;;16.60;7.20;;;;;;;32.63;36.13;100993.47;106749;1256;65071;-86
2023/09/13 08:43:51;;;;;;;8.20;5.10;;;;;;;32.61;35.88;100990.02;106487;1251;62165;-89
2023/09/13 08:46:19;;;;;;;7.70;4.40;;;;;;;32.66;35.21;100991.73;106538;1258;63725;-91
2023/09/13 08:48:47;;;;;;;9.10;4.80;;;;;;;32.65;34.62;100992.06;106493;1253;60441;-89
2023/09/13 08:51:15;;;;;;;5.20;3.40;;;;;;;32.68;33.58;100988.07;106610;1251;60533;-89
2023/09/13 08:53:43;;;;;;;5.70;3.80;;;;;;;32.77;31.24;100990.09;106420;1253;65850;-88
2023/09/13 08:56:11;;;;;;;8.00;3.80;;;;;;;32.84;30.83;100985.91;106433;1253;60431;-87
2023/09/13 08:58:39;;;;;;;6.90;3.50;;;;;;;32.89;31.31;100981.73;106440;1253;62542;-86
2023/09/13 09:01:06;;;;;;;5.40;3.60;;;;;;;32.94;29.99;100983.11;106405;1253;60534;-88
2023/09/13 09:03:34;;;;;;;6.00;4.10;;;;;;;33.01;28.95;100980.64;106334;1253;60509;-90
2023/09/13 09:06:05;;;;;;;3.90;3.30;;;;;;;33.11;29.31;100976.66;106579;1253;65030;-90
2023/09/13 09:08:36;;;;;;;6.70;3.40;;;;;;;32.99;29.08;100977.67;106395;1257;62984;-89
2023/09/13 09:11:04;;;;;;;4.10;3.10;;;;;;;33.00;27.89;100974.02;106426;1253;64537;-86
2023/09/13 09:13:32;;;;;;;5.50;3.20;;;;;;;33.13;27.73;100976.16;106344;1252;60407;-90
2023/09/13 09:16:00;;;;;;;5.90;3.20;;;;;;;33.24;28.06;100971.81;106424;1256;60342;-87
2023/09/13 09:18:28;;;;;;;5.90;3.70;;;;;;;33.26;28.05;100970.27;106254;1256;68309;-90
2023/09/13 09:20:56;;;;;;;6.10;3.80;;;;;;;33.19;28.42;100969.20;106164;1253;60447;-89
2023/09/13 09:23:24;;;;;;;7.90;3.40;;;;;;;33.16;28.20;100966.09;106235;1253;64173;-86
2023/09/13 09:25:52;;;;;;;6.70;4.30;;;;;;;33.30;27.93;100965.91;106623;1253;60986;-88
2023/09/13 09:28:21;;;;;;;10.20;5.50;;;;;;;33.39;26.61;100964.42;106446;1251;61375;-88
2023/09/13 09:30:51;;;;;;;12.60;7.00;;;;;;;33.35;27.20;100963.99;106588;1251;64941;-90
2023/09/13 09:33:31;;;;;;;8.20;3.80;;;;;;;33.26;27.72;100966.36;106402;1252;60534;-87
2023/09/13 09:36:00;;;;;;;7.80;3.80;;;;;;;32.90;28.19;100963.52;106436;1251;64569;-89
2023/09/13 09:38:28;;;;;;;7.30;4.50;;;;;;;32.73;28.92;100960.46;106402;1253;60404;-86
2023/09/13 09:40:58;;;;;;;12.10;5.30;;;;;;;32.75;28.38;100959.88;106606;1251;60338;-85
2023/09/13 09:43:26;;;;;;;8.00;4.80;;;;;;;32.75;28.34;100958.02;106506;1253;65045;-87
2023/09/13 09:45:54;;;;;;;14.60;6.70;;;;;;;32.67;28.29;100955.77;106908;1252;62032;-86
2023/09/13 09:48:22;;;;;;;13.50;6.50;;;;;;;32.55;28.52;100951.83;106490;1251;74840;-85
2023/09/13 09:50:51;;;;;;;7.70;4.00;;;;;;;32.53;28.77;100950.80;106592;1251;60534;-88
2023/09/13 09:53:20;;;;;;;10.80;4.70;;;;;;;32.75;28.16;100947.27;106574;1253;60428;-87
2023/09/13 09:55:48;;;;;;;8.80;4.20;;;;;;;32.91;28.02;100944.27;106520;1253;63758;-88
2023/09/13 09:58:17;;;;;;;5.20;3.80;;;;;;;32.94;27.18;100945.45;106324;1253;60534;-87
2023/09/13 10:00:49;;;;;;;8.90;4.40;;;;;;;32.97;26.73;100945.17;106672;1251;67088;-89
2023/09/13 10:03:18;;;;;;;6.70;3.80;;;;;;;33.07;27.58;100944.52;106431;1253;60453;-89
2023/09/13 10:06:22;;;;;;;6.80;4.30;;;;;;;33.09;28.13;100946.20;106590;1252;60363;-90
2023/09/13 10:08:50;;;;;;;6.70;4.50;;;;;;;33.13;28.01;100947.27;106034;1263;65000;-87
2023/09/13 10:11:21;;;;;;;8.00;4.30;;;;;;;33.21;27.61;100944.27;106441;1253;60322;-90
2023/09/13 10:13:49;;;;;;;8.40;4.80;;;;;;;33.36;28.56;100943.17;106394;1253;66462;-86
2023/09/13 10:16:17;;;;;;;12.80;4.40;;;;;;;33.45;28.51;100943.55;106427;1256;60590;-86
2023/09/13 10:18:50;;;;;;;7.40;4.40;;;;;;;33.43;28.72;100942.92;106536;1253;60423;-86
2023/09/13 10:21:27;;;;;;;7.30;4.40;;;;;;;33.61;28.55;100937.36;106581;1256;65135;-87
2023/09/13 10:24:06;;;;;;;7.10;4.40;;;;;;;33.75;28.20;100941.53;106614;1251;60536;-91
2023/09/13 10:26:34;;;;;;;7.20;4.20;;;;;;;33.87;28.64;100936.66;106714;1253;62468;-91
2023/09/13 10:29:10;;;;;;;6.90;4.20;;;;;;;33.95;28.70;100935.55;106373;1253;60520;-86
2023/09/13 10:31:46;;;;;;;8.90;4.10;;;;;;;33.99;28.01;100938.25;106316;1253;60505;-86
2023/09/13 10:34:25;;;;;;;11.80;4.40;;;;;;;34.01;27.65;100932.38;106569;1256;66371;-88
2023/09/13 10:37:05;;;;;;;9.40;4.70;;;;;;;33.98;27.38;100931.94;106412;1253;60353;-85
2023/09/13 10:39:34;;;;;;;7.00;4.50;;;;;;;33.92;27.84;100936.50;106519;1256;65927;-88
2023/09/13 10:42:02;;;;;;;7.70;4.50;;;;;;;33.92;27.71;100939.73;106405;1257;60526;-88
2023/09/13 10:44:31;;;;;;;14.00;4.70;;;;;;;33.91;27.95;100939.91;106405;1256;60342;-85
2023/09/13 10:46:59;;;;;;;8.80;4.50;;;;;;;33.92;28.28;100933.66;106723;1253;66857;-90
2023/09/13 10:49:27;;;;;;;8.80;4.30;;;;;;;34.03;28.55;100930.73;107678;1254;59694;-90
2023/09/13 10:51:55;;;;;;;10.50;4.40;;;;;;;34.13;28.54;100927.85;106460;1253;62587;-88
2023/09/13 10:54:24;;;;;;;8.80;4.40;;;;;;;34.25;28.37;100924.41;106655;1254;61064;-86
2023/09/13 10:56:52;;;;;;;14.90;7.40;;;;;;;34.44;28.16;100919.84;106625;1251;59272;-85
2023/09/13 10:59:20;;;;;;;14.70;6.30;;;;;;;34.59;28.07;100917.16;106650;1253;63680;-85
2023/09/13 11:01:48;;;;;;;20.40;10.80;;;;;;;34.58;28.07;100915.88;106669;1251;61875;-86
2023/09/13 11:04:17;;;;;;;14.80;6.30;;;;;;;34.56;27.80;100912.34;106510;1255;65859;-91
2023/09/13 11:06:45;;;;;;;12.00;4.40;;;;;;;34.47;27.59;100909.90;106487;1251;60443;-86
2023/09/13 11:09:13;;;;;;;6.40;4.20;;;;;;;34.45;27.58;100908.23;106498;1254;60466;-89
2023/09/13 11:11:46;;;;;;;8.80;4.60;;;;;;;34.41;27.64;100909.92;106517;1253;64912;-86
2023/09/13 11:14:18;;;;;;;9.50;5.00;;;;;;;34.39;27.05;100910.61;106594;1252;60493;-91
2023/09/13 11:16:46;;;;;;;7.20;4.20;;;;;;;34.41;26.99;100908.16;106443;1256;63807;-86
2023/09/13 11:19:15;;;;;;;10.00;4.20;;;;;;;34.36;26.23;100906.54;106368;1251;62361;-90